臺北飛航情報區 - 海峽席

METAR RCTP 040330Z 05015KT 9999 FEW008 BKN015 BKN030 18/16 Q1020 NOSIG RMK A3014=

站台狀態:Online
最後更新:2020-04-04 11:30:02